Terminal Aerodrome Forecast
Issued by NWS Austin/San Antonio, TX

Home | Current Version | Previous Version | Text Only | Print | Product List | Glossary On
Versions: 1 2 3 4 5 6 7 8 9 10 11 12 13 14 15 16 17 18 19 20 21
000
FTUS44 KEWX 262325
TAFDRT
TAF
KDRT 262325Z 2700/2724 10007KT P6SM VCSH BKN060 OVC120
      TEMPO 2701/2703 VRB15G25KT 5SM -TSRA BR BKN035CB
     FM270300 10005KT P6SM SCT060 BKN250
     FM271200 10006KT P6SM BKN015
     FM271600 13009KT P6SM SCT060 SCT250=

USA.gov is the U.S. government's official web portal to all federal, state and local government web resources and services.